createdAt,value
2022-10-18T00:01:28.818Z,99840.66
2022-10-18T00:03:57.082Z,99880.34
2022-10-18T00:06:25.760Z,99864.13
2022-10-18T00:11:34.189Z,99839.22
2022-10-18T00:14:01.698Z,99847.13
2022-10-18T00:16:28.888Z,99847.25
2022-10-18T00:19:04.955Z,99850.63
2022-10-18T00:21:33.358Z,99834.25
2022-10-18T00:24:01.324Z,99842.88
2022-10-18T00:26:31.247Z,99846.75
2022-10-18T00:29:02.482Z,99828.38
2022-10-18T00:31:35.706Z,99809.25
2022-10-18T00:34:06.832Z,99818.25
2022-10-18T00:36:37.404Z,99821.38
2022-10-18T00:39:06.369Z,99833.03
2022-10-18T00:41:36.221Z,99811.63
2022-10-18T00:44:06.463Z,99795.53
2022-10-18T00:49:22.041Z,99817.63
2022-10-18T00:51:56.654Z,99809.63
2022-10-18T00:54:25.286Z,99783.50
2022-10-18T00:56:53.163Z,99786.47
2022-10-18T00:59:29.369Z,99777.47
2022-10-18T01:02:01.388Z,99772.91
2022-10-18T01:04:29.104Z,99790.81
2022-10-18T01:07:15.256Z,99794.16
2022-10-18T01:10:01.521Z,99785.50
2022-10-18T01:15:32.113Z,99788.63
2022-10-18T01:18:07.240Z,99781.38
2022-10-18T01:20:37.189Z,99786.09
2022-10-18T01:23:35.799Z,99778.31
2022-10-18T01:26:33.345Z,99787.56
2022-10-18T01:29:31.929Z,99792.03
2022-10-18T01:32:29.948Z,99781.94
2022-10-18T01:35:25.526Z,99790.53
2022-10-18T01:38:54.851Z,99798.69
2022-10-18T01:42:10.472Z,99778.78
2022-10-18T01:44:39.653Z,99737.53
2022-10-18T01:47:10.326Z,99781.53
2022-10-18T01:49:39.565Z,99765.00
2022-10-18T01:54:42.922Z,99753.66
2022-10-18T01:57:18.405Z,99750.16
2022-10-18T02:00:21.416Z,99750.69
2022-10-18T02:03:10.930Z,99745.06
2022-10-18T02:06:00.652Z,99758.81
2022-10-18T02:08:31.144Z,99756.16
2022-10-18T02:11:05.808Z,99740.94
2022-10-18T02:13:42.357Z,99734.06
2022-10-18T02:16:17.750Z,99745.50
2022-10-18T02:18:50.811Z,99738.13
2022-10-18T02:21:21.375Z,99750.31
2022-10-18T02:23:49.468Z,99714.50
2022-10-18T02:26:17.959Z,99723.28
2022-10-18T02:28:46.046Z,99733.25
2022-10-18T02:31:27.575Z,99734.31
2022-10-18T02:34:00.605Z,99714.59
2022-10-18T02:36:40.944Z,99708.19
2022-10-18T02:39:17.684Z,99721.59
2022-10-18T02:41:45.339Z,99697.16
2022-10-18T02:44:13.289Z,99714.41
2022-10-18T02:46:41.300Z,99716.25
2022-10-18T02:49:09.427Z,99695.84
2022-10-18T02:51:36.942Z,99710.25
2022-10-18T02:54:05.374Z,99700.88
2022-10-18T03:01:55.286Z,99678.81
2022-10-18T03:04:22.785Z,99667.97
2022-10-18T03:06:52.200Z,99651.09
2022-10-18T03:09:19.786Z,99666.84
2022-10-18T03:11:56.018Z,99661.44
2022-10-18T03:14:23.702Z,99681.69
2022-10-18T03:16:51.993Z,99647.06
2022-10-18T03:19:19.055Z,99653.16
2022-10-18T03:21:46.163Z,99643.78
2022-10-18T03:24:13.323Z,99649.31
2022-10-18T03:26:40.531Z,99647.50
2022-10-18T03:29:07.836Z,99632.91
2022-10-18T03:31:35.570Z,99614.84
2022-10-18T03:34:12.663Z,99608.31
2022-10-18T03:36:41.552Z,99625.97
2022-10-18T03:39:10.631Z,99623.13
2022-10-18T03:41:47.150Z,99580.09
2022-10-18T03:44:19.036Z,99599.94
2022-10-18T03:46:46.579Z,99608.44
2022-10-18T03:49:13.755Z,99596.59
2022-10-18T03:51:41.089Z,99595.22
2022-10-18T03:54:08.366Z,99589.28
2022-10-18T03:56:44.663Z,99586.09
2022-10-18T03:59:11.795Z,99573.78
2022-10-18T04:01:39.843Z,99575.13
2022-10-18T04:04:07.034Z,99551.84
2022-10-18T04:06:36.400Z,99564.09
2022-10-18T04:09:06.532Z,99565.41
2022-10-18T04:11:37.460Z,99565.34
2022-10-18T04:14:04.575Z,99555.31
2022-10-18T04:16:31.789Z,99558.00
2022-10-18T04:18:59.268Z,99558.41
2022-10-18T04:21:26.353Z,99532.34
2022-10-18T04:23:53.784Z,99564.72
2022-10-18T04:26:21.010Z,99554.88
2022-10-18T04:28:48.251Z,99556.25
2022-10-18T04:31:16.474Z,99538.69
2022-10-18T04:33:46.264Z,99541.06
2022-10-18T04:39:01.941Z,99524.19
2022-10-18T04:51:20.247Z,99514.16
2022-10-18T04:56:30.979Z,99485.50
2022-10-18T04:58:59.811Z,99482.41
2022-10-18T05:01:29.842Z,99484.28
2022-10-18T05:03:57.312Z,99485.03
2022-10-18T05:06:24.658Z,99507.97
2022-10-18T05:11:35.187Z,99481.00
2022-10-18T05:14:05.420Z,99481.88
2022-10-18T05:16:33.871Z,99497.97
2022-10-18T05:19:02.638Z,99499.72
2022-10-18T05:21:32.030Z,99476.50
2022-10-18T05:24:12.785Z,99487.81
2022-10-18T11:34:07.638Z,98517.25
2022-10-18T11:40:17.645Z,98533.75
2022-10-18T15:47:46.907Z,98684.75
2022-10-18T16:35:02.931Z,98770.19
2022-10-18T21:26:10.610Z,98782.56
2022-10-18T22:12:09.318Z,98752.22
2022-10-18T23:11:13.429Z,98658.31
